createdAt,value
2023-04-19T00:00:08.677Z,12.30
2023-04-19T00:01:41.741Z,14.05
2023-04-19T00:03:15.862Z,13.43
2023-04-19T00:04:50.396Z,12.40
2023-04-19T00:06:23.423Z,12.68
2023-04-19T00:07:55.405Z,13.18
2023-04-19T00:09:28.284Z,13.35
2023-04-19T00:11:01.382Z,13.15
2023-04-19T00:12:34.461Z,13.85
2023-04-19T00:14:07.442Z,13.75
2023-04-19T00:15:40.535Z,12.75
2023-04-19T00:17:13.467Z,13.80
2023-04-19T00:18:46.690Z,14.95
2023-04-19T00:20:21.779Z,14.55
2023-04-19T00:21:54.740Z,15.05
2023-04-19T00:23:26.747Z,13.20
2023-04-19T00:24:59.671Z,13.95
2023-04-19T00:26:32.581Z,13.05
2023-04-19T00:28:05.822Z,13.57
2023-04-19T00:29:38.761Z,17.45
2023-04-19T00:31:11.852Z,13.10
2023-04-19T00:32:44.889Z,13.90
2023-04-19T00:34:17.860Z,14.00
2023-04-19T00:35:52.651Z,13.25
2023-04-19T00:37:25.612Z,14.07
2023-04-19T00:38:57.640Z,15.95
2023-04-19T00:40:30.613Z,15.93
2023-04-19T00:42:03.570Z,14.40
2023-04-19T00:43:36.482Z,14.32
2023-04-19T00:45:10.523Z,13.98
2023-04-19T00:46:44.345Z,15.10
2023-04-19T00:48:17.904Z,13.15
2023-04-19T00:49:50.949Z,15.38
2023-04-19T00:51:26.972Z,14.68
2023-04-19T00:52:59.995Z,14.65
2023-04-19T00:54:34.462Z,14.90
2023-04-19T00:56:08.080Z,17.33
2023-04-19T00:57:41.611Z,16.77
2023-04-19T00:59:16.316Z,14.70
2023-04-19T01:00:49.267Z,14.77
2023-04-19T01:02:22.069Z,15.85
2023-04-19T01:03:55.415Z,15.95
2023-04-19T01:07:03.948Z,14.10
2023-04-19T01:08:36.881Z,15.07
2023-04-19T01:10:10.390Z,13.80
2023-04-19T01:11:43.776Z,15.27
2023-04-19T01:14:48.852Z,13.95
2023-04-19T01:16:21.856Z,16.25
2023-04-19T01:17:56.007Z,15.75
2023-04-19T01:19:28.998Z,15.98
2023-04-19T01:21:01.942Z,15.20
2023-04-19T01:22:37.607Z,17.23
2023-04-19T01:24:10.739Z,16.30
2023-04-19T01:25:43.889Z,18.77
2023-04-19T01:27:17.579Z,13.93
2023-04-19T01:28:50.509Z,15.93
2023-04-19T01:30:22.573Z,15.70
2023-04-19T01:31:55.547Z,16.05
2023-04-19T01:33:28.510Z,16.42
2023-04-19T01:35:00.513Z,16.40
2023-04-19T01:36:33.469Z,14.40
2023-04-19T01:38:07.730Z,15.82
2023-04-19T01:39:40.697Z,15.85
2023-04-19T01:41:13.631Z,16.08
2023-04-19T01:42:46.601Z,15.45
2023-04-19T01:44:18.511Z,16.58
2023-04-19T01:45:51.451Z,15.50
2023-04-19T01:47:25.018Z,15.23
2023-04-19T01:48:56.931Z,15.68
2023-04-19T01:50:30.089Z,17.17
2023-04-19T01:52:03.314Z,15.43
2023-04-19T01:53:37.566Z,17.80
2023-04-19T01:55:10.672Z,17.67
2023-04-19T01:56:43.668Z,17.30
2023-04-19T01:58:16.741Z,16.98
2023-04-19T01:59:50.289Z,17.42
2023-04-19T02:01:23.383Z,18.00
2023-04-19T02:02:56.594Z,16.08
2023-04-19T02:04:29.583Z,16.65
2023-04-19T02:06:02.540Z,15.25
2023-04-19T02:07:34.837Z,19.92
2023-04-19T02:09:09.328Z,17.65
2023-04-19T02:10:42.505Z,15.82
2023-04-19T02:12:15.536Z,15.65
2023-04-19T02:13:48.486Z,16.52
2023-04-19T02:15:21.564Z,16.77
2023-04-19T02:16:54.765Z,17.88
2023-04-19T02:18:26.823Z,15.45
2023-04-19T02:19:59.785Z,19.13
2023-04-19T02:21:32.945Z,17.38
2023-04-19T02:23:05.988Z,16.17
2023-04-19T02:24:40.550Z,16.77
2023-04-19T02:26:13.156Z,17.30
2023-04-19T02:27:46.308Z,18.15
2023-04-19T02:29:19.366Z,18.52
2023-04-19T02:30:52.420Z,20.23
2023-04-19T02:32:24.399Z,18.25
2023-04-19T02:33:57.302Z,16.83
2023-04-19T02:35:30.311Z,18.55
2023-04-19T02:37:03.599Z,19.95
2023-04-19T02:38:35.643Z,20.05
2023-04-19T02:40:11.066Z,15.88
2023-04-19T02:41:43.066Z,20.27
2023-04-19T02:43:16.019Z,16.80
2023-04-19T02:44:47.989Z,15.70
2023-04-19T02:46:20.995Z,17.50
2023-04-19T02:47:54.205Z,17.52
2023-04-19T02:49:27.201Z,16.50
2023-04-19T02:51:00.298Z,17.85
2023-04-19T02:52:33.321Z,17.77
2023-04-19T02:54:06.763Z,17.55
2023-04-19T02:55:41.080Z,17.67
2023-04-19T02:57:13.997Z,16.05
2023-04-19T02:58:46.950Z,17.38
2023-04-19T03:00:19.142Z,16.08
2023-04-19T03:01:52.148Z,18.63
2023-04-19T03:03:24.211Z,19.50
2023-04-19T03:04:57.313Z,15.77
2023-04-19T03:06:29.230Z,17.70
2023-04-19T03:08:02.238Z,17.98
2023-04-19T03:09:35.170Z,18.88
2023-04-19T03:11:09.522Z,18.77
2023-04-19T03:12:41.603Z,17.27
2023-04-19T03:14:14.684Z,18.50
2023-04-19T03:17:21.270Z,17.40
2023-04-19T03:18:53.428Z,18.15
2023-04-19T03:20:27.309Z,20.45
2023-04-19T03:22:00.313Z,20.63
2023-04-19T03:23:33.373Z,18.35
2023-04-19T03:25:08.617Z,19.55
2023-04-19T03:26:43.046Z,19.70
2023-04-19T03:28:16.028Z,21.17
2023-04-19T03:29:49.181Z,19.40
2023-04-19T03:31:22.140Z,20.27
2023-04-19T03:32:55.228Z,20.45
2023-04-19T03:34:28.272Z,21.25
2023-04-19T03:36:01.168Z,22.13
2023-04-19T03:37:34.266Z,20.17
2023-04-19T03:39:07.479Z,20.08
2023-04-19T03:40:40.469Z,20.10
2023-04-19T03:42:14.755Z,20.27
2023-04-19T03:43:46.704Z,22.40
2023-04-19T03:45:19.863Z,17.27
2023-04-19T03:46:52.893Z,19.45
2023-04-19T03:48:25.951Z,19.25
2023-04-19T03:49:58.866Z,19.88
2023-04-19T03:51:32.503Z,19.50
2023-04-19T03:53:06.072Z,22.48
2023-04-19T03:54:39.078Z,20.95
2023-04-19T03:56:12.080Z,19.55
2023-04-19T03:57:46.384Z,19.98
2023-04-19T03:59:19.393Z,19.27
2023-04-19T04:00:53.551Z,20.10
2023-04-19T04:02:26.681Z,21.73
2023-04-19T04:04:01.113Z,18.92
2023-04-19T04:05:36.420Z,21.10
2023-04-19T04:08:42.409Z,18.40
2023-04-19T04:10:15.425Z,20.52
2023-04-19T04:11:48.376Z,18.40
2023-04-19T04:13:22.747Z,20.65
2023-04-19T04:14:55.739Z,22.00
2023-04-19T04:16:28.829Z,23.77
2023-04-19T04:18:01.863Z,22.10
2023-04-19T04:19:35.274Z,19.70
2023-04-19T04:21:08.421Z,19.15
2023-04-19T04:22:43.202Z,22.15
2023-04-19T04:24:17.872Z,22.27
2023-04-19T04:25:59.159Z,19.52
2023-04-19T04:27:32.162Z,20.55
2023-04-19T04:29:06.749Z,22.17
2023-04-19T04:30:40.559Z,22.52
2023-04-19T04:32:14.583Z,19.77
2023-04-19T04:33:47.569Z,18.80
2023-04-19T04:35:20.716Z,19.10
2023-04-19T04:36:54.164Z,21.95
2023-04-19T04:40:00.674Z,20.67
2023-04-19T04:41:35.964Z,22.27
2023-04-19T04:43:09.102Z,19.88
2023-04-19T04:44:45.105Z,19.73
2023-04-19T04:46:18.239Z,18.63
2023-04-19T04:47:51.597Z,21.23
2023-04-19T04:50:57.581Z,20.27
2023-04-19T04:52:30.674Z,22.70
2023-04-19T04:54:05.177Z,18.10
2023-04-19T04:55:38.218Z,20.92
2023-04-19T04:57:11.378Z,20.65
2023-04-19T04:58:44.291Z,19.70
2023-04-19T05:00:19.359Z,18.35
2023-04-19T05:01:52.285Z,20.60
2023-04-19T05:03:25.304Z,22.20
2023-04-19T05:04:58.275Z,17.77
2023-04-19T05:06:31.825Z,23.58
2023-04-19T05:08:05.231Z,20.63
2023-04-19T05:11:11.025Z,18.65
2023-04-19T05:12:43.999Z,19.90
2023-04-19T05:14:17.174Z,24.45
2023-04-19T05:15:51.740Z,19.83
2023-04-19T05:17:24.812Z,20.15
2023-04-19T05:18:57.804Z,20.95
2023-04-19T05:20:30.855Z,20.70
2023-04-19T05:22:03.866Z,23.23
2023-04-19T05:23:35.921Z,23.85
2023-04-19T05:25:11.617Z,21.45
2023-04-19T05:26:44.724Z,22.52
2023-04-19T05:28:17.687Z,19.52
2023-04-19T05:29:51.434Z,21.35
2023-04-19T05:31:25.772Z,19.88
2023-04-19T05:32:59.065Z,19.50
2023-04-19T05:36:05.495Z,19.00
2023-04-19T05:37:39.173Z,19.38
2023-04-19T05:39:12.138Z,21.42
2023-04-19T05:40:45.202Z,17.83
2023-04-19T05:42:18.136Z,21.63
2023-04-19T05:43:51.177Z,19.73
2023-04-19T05:45:25.496Z,22.45
2023-04-19T05:46:59.851Z,19.70
2023-04-19T05:48:32.921Z,20.33
2023-04-19T05:50:06.293Z,20.88
2023-04-19T05:53:12.153Z,18.15
2023-04-19T05:54:45.165Z,19.88
2023-04-19T05:56:18.122Z,20.45
2023-04-19T05:57:51.701Z,18.35
2023-04-19T05:59:24.879Z,19.83
2023-04-19T06:00:58.126Z,20.38
2023-04-19T06:02:32.573Z,20.77
2023-04-19T06:04:05.897Z,22.80
2023-04-19T06:07:27.256Z,19.85
2023-04-19T06:09:04.960Z,19.10
2023-04-19T06:12:27.378Z,20.48
2023-04-19T06:14:00.570Z,21.35
2023-04-19T06:15:33.497Z,19.35
2023-04-19T06:17:06.479Z,23.52
2023-04-19T06:18:40.963Z,22.05
2023-04-19T06:20:14.247Z,20.65
2023-04-19T06:23:20.783Z,23.43
2023-04-19T06:24:53.731Z,20.30
2023-04-19T06:26:26.735Z,20.95
2023-04-19T06:27:59.748Z,19.75
2023-04-19T06:29:32.861Z,18.73
2023-04-19T06:31:06.246Z,19.13
2023-04-19T06:34:13.446Z,21.05
2023-04-19T06:35:46.415Z,19.42
2023-04-19T06:37:19.459Z,20.42
2023-04-19T06:38:52.484Z,24.50
2023-04-19T06:40:25.563Z,22.88
2023-04-19T06:41:58.653Z,22.70
2023-04-19T06:43:31.674Z,23.58
2023-04-19T06:45:05.550Z,21.63
2023-04-19T06:46:38.478Z,22.38
2023-04-19T06:48:11.438Z,23.38
2023-04-19T06:49:45.906Z,21.50
2023-04-19T06:51:18.798Z,22.52
2023-04-19T06:52:51.713Z,22.33
2023-04-19T06:54:24.610Z,22.17
2023-04-19T06:56:00.921Z,21.92
2023-04-19T06:57:34.023Z,18.90
2023-04-19T06:59:07.012Z,23.85
2023-04-19T07:00:39.984Z,19.13
2023-04-19T07:02:13.322Z,24.02
2023-04-19T07:05:21.389Z,19.52
2023-04-19T07:06:54.365Z,22.67
2023-04-19T07:08:38.289Z,19.88
2023-04-19T07:10:12.831Z,24.80
2023-04-19T07:11:47.609Z,21.33
2023-04-19T07:13:20.537Z,22.70
2023-04-19T07:14:56.552Z,24.55
2023-04-19T07:16:29.730Z,21.85
2023-04-19T07:18:02.925Z,22.27
2023-04-19T07:19:36.572Z,24.80
2023-04-19T07:21:11.023Z,23.23
2023-04-19T07:22:43.938Z,22.30
2023-04-19T07:24:17.730Z,21.77
2023-04-19T07:25:50.934Z,21.38
2023-04-19T07:27:23.893Z,25.60
2023-04-19T07:28:56.974Z,23.92
2023-04-19T07:30:29.904Z,22.08
2023-04-19T07:32:02.880Z,25.90
2023-04-19T07:33:35.904Z,21.30
2023-04-19T07:35:09.824Z,24.60
2023-04-19T07:36:44.032Z,23.20
2023-04-19T07:38:17.117Z,22.52
2023-04-19T07:39:50.078Z,23.90
2023-04-19T07:41:23.631Z,23.45
2023-04-19T07:42:57.262Z,24.77
2023-04-19T07:44:30.372Z,22.98
2023-04-19T07:46:03.509Z,25.40
2023-04-19T07:47:36.499Z,26.58
2023-04-19T07:49:09.550Z,24.27
2023-04-19T07:50:42.474Z,24.55
2023-04-19T07:52:18.429Z,27.33
2023-04-19T07:53:51.839Z,27.95
2023-04-19T07:56:58.974Z,31.27
2023-04-19T07:58:32.007Z,28.88
2023-04-19T08:00:05.747Z,29.20
2023-04-19T08:01:38.933Z,31.88
2023-04-19T08:03:12.132Z,31.10
2023-04-19T08:06:22.331Z,31.13
2023-04-19T08:07:57.087Z,31.42
2023-04-19T08:09:30.151Z,29.92
2023-04-19T08:11:03.621Z,31.30
2023-04-19T08:12:42.981Z,31.23
2023-04-19T08:14:34.619Z,29.58
2023-04-19T08:17:44.636Z,29.38
2023-04-19T08:19:17.791Z,30.05
2023-04-19T08:20:50.951Z,30.58
2023-04-19T08:22:23.912Z,33.45
2023-04-19T08:23:58.279Z,29.77
2023-04-19T08:25:31.349Z,32.72
2023-04-19T08:27:04.277Z,29.10
2023-04-19T08:28:38.120Z,29.45
2023-04-19T08:30:12.162Z,31.02
2023-04-19T08:31:45.519Z,29.42
2023-04-19T08:34:51.522Z,28.70
2023-04-19T08:36:35.885Z,26.58
2023-04-19T08:38:14.242Z,28.40
2023-04-19T08:39:48.502Z,30.95
2023-04-19T08:41:23.190Z,27.35
2023-04-19T08:42:58.156Z,24.30
2023-04-19T08:44:36.357Z,27.70
2023-04-19T08:46:12.589Z,27.95
2023-04-19T08:47:58.781Z,26.98
2023-04-19T08:49:36.755Z,28.15
2023-04-19T08:51:11.972Z,26.48
2023-04-19T08:52:54.864Z,27.67
2023-04-19T08:54:32.153Z,25.48
2023-04-19T08:56:20.687Z,27.73
2023-04-19T08:58:03.901Z,26.75
2023-04-19T08:59:37.528Z,30.70
2023-04-19T09:02:59.682Z,28.17
2023-04-19T09:04:37.260Z,28.50
2023-04-19T09:06:12.131Z,28.60
2023-04-19T09:07:45.915Z,26.48
2023-04-19T09:10:57.608Z,24.67
2023-04-19T09:12:32.159Z,25.80
2023-04-19T09:14:10.032Z,25.35
2023-04-19T09:15:44.647Z,24.63
2023-04-19T09:17:17.906Z,25.48
2023-04-19T09:19:11.400Z,25.90
2023-04-19T09:20:48.739Z,26.45
2023-04-19T09:22:21.641Z,25.95
2023-04-19T09:23:54.645Z,25.27
2023-04-19T09:27:03.657Z,25.42
2023-04-19T09:28:37.985Z,25.60
2023-04-19T09:30:20.840Z,25.90
2023-04-19T09:32:01.246Z,26.35
2023-04-19T09:33:35.496Z,23.55
2023-04-19T09:35:09.371Z,22.00
2023-04-19T09:36:42.876Z,20.83
2023-04-19T09:38:16.584Z,21.27
2023-04-19T09:39:49.525Z,25.17
2023-04-19T09:41:22.434Z,25.00
2023-04-19T09:43:07.349Z,21.58
2023-04-19T09:46:37.144Z,22.10
2023-04-19T09:48:10.907Z,21.67
2023-04-19T09:49:48.902Z,19.70
2023-04-19T09:51:23.275Z,20.42
2023-04-19T09:52:56.977Z,21.27
2023-04-19T09:54:32.523Z,19.65
2023-04-19T09:56:06.259Z,20.75
2023-04-19T09:57:39.230Z,19.58
2023-04-19T09:59:20.863Z,23.05
2023-04-19T10:01:10.780Z,19.90
2023-04-19T10:02:54.496Z,19.92
2023-04-19T10:04:41.613Z,16.73
2023-04-19T10:08:00.294Z,18.02
2023-04-19T10:09:45.887Z,19.52
2023-04-19T10:11:28.177Z,18.17
2023-04-19T10:14:41.520Z,16.45
2023-04-19T10:16:20.092Z,17.52
2023-04-19T10:17:53.757Z,15.40
2023-04-19T10:19:28.112Z,15.15
2023-04-19T10:21:07.140Z,16.80
2023-04-19T10:22:40.371Z,19.13
2023-04-19T10:24:15.116Z,17.27
2023-04-19T10:25:49.101Z,17.20
2023-04-19T10:27:26.571Z,17.60
2023-04-19T10:28:59.591Z,17.00
2023-04-19T10:30:32.458Z,14.63
2023-04-19T10:32:07.526Z,15.85
2023-04-19T10:33:41.577Z,13.52
2023-04-19T10:35:20.060Z,14.77
2023-04-19T10:36:52.982Z,16.63
2023-04-19T10:38:39.774Z,15.38
2023-04-19T10:40:13.410Z,17.00
2023-04-19T10:41:59.271Z,15.48
2023-04-19T10:43:33.810Z,13.32
2023-04-19T10:45:35.286Z,16.05
2023-04-19T10:47:09.605Z,16.83
2023-04-19T10:48:54.318Z,13.65
2023-04-19T10:50:27.519Z,15.35
2023-04-19T10:52:00.886Z,13.77
2023-04-19T10:55:25.209Z,13.85
2023-04-19T10:57:04.383Z,13.43
2023-04-19T10:59:11.544Z,14.45
2023-04-19T11:00:44.591Z,13.00
2023-04-19T11:02:33.259Z,11.85
2023-04-19T11:04:06.880Z,11.90
2023-04-19T11:06:09.742Z,11.52
2023-04-19T11:07:43.429Z,10.07
2023-04-19T11:09:23.649Z,11.75
2023-04-19T11:10:58.678Z,12.80
2023-04-19T11:12:31.548Z,13.10
2023-04-19T11:14:05.186Z,11.52
2023-04-19T11:15:44.439Z,10.80
2023-04-19T11:17:18.944Z,12.30
2023-04-19T11:18:54.017Z,11.13
2023-04-19T11:20:26.945Z,12.70
2023-04-19T11:22:01.012Z,11.13
2023-04-19T11:23:33.976Z,11.18
2023-04-19T11:25:08.468Z,10.32
2023-04-19T11:26:43.852Z,11.15
2023-04-19T11:28:18.146Z,9.85
2023-04-19T11:29:51.197Z,11.43
2023-04-19T11:31:24.478Z,10.18
2023-04-19T11:34:37.069Z,10.18
2023-04-19T11:36:13.363Z,10.73
2023-04-19T11:37:46.876Z,10.02
2023-04-19T11:39:19.926Z,10.52
2023-04-19T11:41:00.487Z,10.80
2023-04-19T11:42:34.062Z,10.93
2023-04-19T11:44:14.639Z,9.27
2023-04-19T11:45:47.796Z,8.80
2023-04-19T11:47:21.153Z,9.32
2023-04-19T11:50:37.813Z,11.57
2023-04-19T11:52:10.751Z,8.55
2023-04-19T11:53:43.705Z,8.52
2023-04-19T11:55:20.315Z,9.95
2023-04-19T11:57:07.036Z,9.63
2023-04-19T11:58:44.575Z,10.90
2023-04-19T12:00:27.750Z,9.57
2023-04-19T12:02:08.359Z,9.65
2023-04-19T12:03:43.589Z,9.73
2023-04-19T12:05:17.360Z,9.63
2023-04-19T12:07:00.496Z,10.60
2023-04-19T12:08:36.146Z,11.18
2023-04-19T12:10:13.695Z,9.63
2023-04-19T12:11:49.962Z,8.52
2023-04-19T12:13:22.831Z,11.32
2023-04-19T12:14:55.788Z,9.32
2023-04-19T12:16:29.049Z,8.82
2023-04-19T12:19:43.242Z,8.13
2023-04-19T12:21:33.922Z,7.45
2023-04-19T12:23:11.179Z,9.90
2023-04-19T12:24:44.490Z,10.15
2023-04-19T12:26:17.492Z,8.63
2023-04-19T12:27:50.540Z,10.90
2023-04-19T12:29:23.837Z,6.88
2023-04-19T12:30:56.734Z,6.93
2023-04-19T12:32:29.716Z,9.50
2023-04-19T12:34:02.646Z,7.82
2023-04-19T12:35:36.157Z,10.70
2023-04-19T12:37:09.110Z,6.53
2023-04-19T12:38:43.370Z,6.15
2023-04-19T12:40:16.973Z,7.25
2023-04-19T12:41:50.090Z,6.57
2023-04-19T12:43:23.009Z,6.82
2023-04-19T12:44:55.902Z,7.93
2023-04-19T12:46:28.827Z,6.22
2023-04-19T12:48:01.795Z,6.65
2023-04-19T12:49:35.159Z,5.55
2023-04-19T12:52:48.037Z,4.65
2023-04-19T12:54:22.352Z,4.45
2023-04-19T12:55:55.307Z,4.28
2023-04-19T12:57:28.234Z,5.65
2023-04-19T12:59:01.232Z,5.43
2023-04-19T13:00:34.371Z,5.15
2023-04-19T13:02:08.490Z,5.50
2023-04-19T13:03:41.086Z,8.05
2023-04-19T13:05:14.153Z,3.85
2023-04-19T13:06:47.078Z,4.45
2023-04-19T13:08:28.144Z,5.35
2023-04-19T13:10:12.465Z,7.05
2023-04-19T13:11:45.445Z,4.53
2023-04-19T13:13:18.371Z,3.80
2023-04-19T13:14:52.377Z,4.53
2023-04-19T13:16:25.652Z,3.85
2023-04-19T13:17:58.594Z,5.25
2023-04-19T13:19:31.796Z,3.35
2023-04-19T13:21:06.700Z,3.85
2023-04-19T13:22:41.055Z,6.38
2023-04-19T13:24:14.811Z,5.65
2023-04-19T13:25:49.390Z,6.63
2023-04-19T13:27:22.332Z,5.35
2023-04-19T13:28:56.295Z,5.72
2023-04-19T13:30:29.412Z,4.18
2023-04-19T13:32:02.324Z,3.80
2023-04-19T13:33:35.421Z,3.88
2023-04-19T13:35:09.137Z,5.15
2023-04-19T13:36:42.087Z,4.35
2023-04-19T13:38:15.024Z,3.67
2023-04-19T13:39:47.885Z,4.63
2023-04-19T13:41:22.507Z,4.18
2023-04-19T13:42:56.748Z,5.93
2023-04-19T13:44:29.950Z,4.65
2023-04-19T13:46:02.833Z,4.03
2023-04-19T13:47:35.741Z,4.93
2023-04-19T13:49:08.703Z,4.15
2023-04-19T13:50:41.618Z,4.25
2023-04-19T13:52:14.518Z,6.10
2023-04-19T13:53:47.570Z,5.28
2023-04-19T13:55:20.510Z,5.93
2023-04-19T13:56:54.799Z,7.35
2023-04-19T13:58:27.744Z,5.30
2023-04-19T14:00:00.660Z,6.47
2023-04-19T14:01:33.645Z,5.40
2023-04-19T14:03:06.737Z,7.80
2023-04-19T14:04:39.839Z,8.02
2023-04-19T14:06:12.817Z,6.18
2023-04-19T14:07:45.722Z,7.25
2023-04-19T14:09:18.598Z,6.70
2023-04-19T14:10:51.880Z,8.80
2023-04-19T14:15:32.010Z,5.75
2023-04-19T14:17:04.934Z,6.40
2023-04-19T14:18:38.058Z,6.88
2023-04-19T14:20:12.625Z,6.47
2023-04-19T14:21:45.584Z,7.45
2023-04-19T14:23:18.531Z,6.40
2023-04-19T14:24:51.596Z,7.15
2023-04-19T14:26:25.890Z,4.88
2023-04-19T14:28:01.755Z,6.68
2023-04-19T14:29:34.659Z,6.28
2023-04-19T14:31:07.567Z,5.47
2023-04-19T14:32:40.643Z,5.80
2023-04-19T14:34:13.664Z,7.22
2023-04-19T14:35:46.688Z,6.55
2023-04-19T14:37:19.971Z,6.57
2023-04-19T14:40:25.800Z,6.57
2023-04-19T14:41:58.714Z,6.22
2023-04-19T14:43:33.119Z,5.38
2023-04-19T14:45:07.246Z,7.78
2023-04-19T14:46:40.520Z,5.95
2023-04-19T14:48:13.482Z,6.15
2023-04-19T14:49:46.480Z,6.00
2023-04-19T14:51:19.309Z,9.30
2023-04-19T14:52:54.575Z,5.82
2023-04-19T14:54:27.684Z,5.75
2023-04-19T14:56:00.560Z,7.45
2023-04-19T14:57:33.766Z,7.65
2023-04-19T14:59:08.996Z,5.57
2023-04-19T15:00:41.999Z,6.25
2023-04-19T15:02:15.098Z,8.50
2023-04-19T15:03:48.395Z,4.13
2023-04-19T15:06:56.748Z,7.28
2023-04-19T15:08:30.882Z,6.07
2023-04-19T15:10:04.134Z,5.88
2023-04-19T15:11:37.284Z,8.00
2023-04-19T15:13:11.563Z,8.75
2023-04-19T15:14:45.809Z,5.78
2023-04-19T15:16:18.837Z,5.95
2023-04-19T15:17:52.103Z,5.72
2023-04-19T15:20:57.870Z,5.40
2023-04-19T15:22:30.831Z,6.47
2023-04-19T15:24:04.538Z,7.95
2023-04-19T15:25:39.305Z,6.18
2023-04-19T15:27:12.279Z,6.38
2023-04-19T15:28:45.393Z,5.03
2023-04-19T15:30:19.942Z,6.07
2023-04-19T15:31:52.934Z,3.92
2023-04-19T15:33:26.472Z,7.47
2023-04-19T15:34:59.559Z,7.07
2023-04-19T15:36:32.588Z,5.13
2023-04-19T15:38:05.870Z,4.82
2023-04-19T15:39:38.937Z,5.68
2023-04-19T15:41:12.535Z,5.18
2023-04-19T15:42:45.460Z,6.63
2023-04-19T15:44:18.509Z,6.78
2023-04-19T15:45:53.300Z,5.88
2023-04-19T15:47:26.210Z,5.07
2023-04-19T15:48:59.262Z,4.88
2023-04-19T15:50:32.252Z,6.47
2023-04-19T15:52:05.678Z,5.60
2023-04-19T15:53:38.757Z,5.72
2023-04-19T15:55:11.682Z,5.75
2023-04-19T15:56:44.607Z,5.43
2023-04-19T15:58:17.489Z,5.03
2023-04-19T15:59:50.530Z,4.93
2023-04-19T16:01:24.898Z,5.35
2023-04-19T16:02:58.062Z,4.82
2023-04-19T16:06:04.351Z,5.63
2023-04-19T16:07:37.213Z,8.00
2023-04-19T16:09:10.100Z,3.80
2023-04-19T16:10:44.817Z,6.43
2023-04-19T16:12:17.785Z,5.22
2023-04-19T16:13:50.673Z,5.07
2023-04-19T16:15:23.908Z,6.00
2023-04-19T16:16:58.275Z,6.88
2023-04-19T16:18:32.304Z,5.95
2023-04-19T16:20:05.907Z,4.88
2023-04-19T16:21:38.854Z,6.05
2023-04-19T16:23:12.027Z,4.40
2023-04-19T16:24:46.400Z,4.72
2023-04-19T16:26:19.296Z,6.57
2023-04-19T16:27:52.267Z,5.82
2023-04-19T16:29:25.309Z,4.85
2023-04-19T16:30:58.402Z,5.13
2023-04-19T16:32:32.806Z,5.75
2023-04-19T16:34:05.895Z,7.68
2023-04-19T16:35:38.935Z,5.88
2023-04-19T16:37:10.947Z,6.95
2023-04-19T16:38:43.896Z,5.07
2023-04-19T16:40:16.980Z,4.60
2023-04-19T16:41:49.855Z,5.05
2023-04-19T16:43:23.577Z,5.40
2023-04-19T16:44:56.567Z,6.10
2023-04-19T16:46:29.611Z,7.10
2023-04-19T16:48:04.095Z,9.02
2023-04-19T16:49:37.027Z,6.20
2023-04-19T16:51:09.974Z,5.53
2023-04-19T16:52:42.912Z,5.90
2023-04-19T16:54:15.847Z,5.97
2023-04-19T16:55:48.813Z,7.03
2023-04-19T16:57:21.890Z,6.47
2023-04-19T16:58:56.433Z,6.00
2023-04-19T17:00:29.337Z,7.85
2023-04-19T17:02:02.744Z,6.65
2023-04-19T17:03:37.413Z,8.00
2023-04-19T17:05:12.634Z,6.25
2023-04-19T17:06:45.620Z,8.00
2023-04-19T17:08:18.616Z,5.60
2023-04-19T17:09:51.646Z,6.25
2023-04-19T17:11:24.845Z,7.38
2023-04-19T17:12:57.730Z,6.05
2023-04-19T17:14:30.925Z,7.30
2023-04-19T17:16:04.374Z,7.13
2023-04-19T17:17:37.489Z,6.55
2023-04-19T17:19:11.782Z,6.35
2023-04-19T17:20:44.703Z,6.43
2023-04-19T17:22:17.722Z,5.85
2023-04-19T17:23:50.640Z,6.22
2023-04-19T17:25:29.686Z,6.07
2023-04-19T17:27:02.794Z,6.20
2023-04-19T17:28:37.769Z,5.85
2023-04-19T17:30:13.463Z,5.68
2023-04-19T17:31:49.109Z,5.03
2023-04-19T17:33:22.087Z,5.60
2023-04-19T17:34:59.931Z,8.15
2023-04-19T17:36:33.049Z,8.30
2023-04-19T17:38:08.586Z,8.10
2023-04-19T17:39:44.128Z,10.48
2023-04-19T17:41:17.045Z,10.23
2023-04-19T17:42:49.951Z,6.88
2023-04-19T17:44:26.668Z,6.18
2023-04-19T17:45:59.660Z,6.72
2023-04-19T17:47:35.632Z,8.43
2023-04-19T17:49:18.929Z,7.10
2023-04-19T17:50:57.200Z,9.25
2023-04-19T17:52:31.507Z,7.63
2023-04-19T17:54:07.117Z,8.50
2023-04-19T17:55:39.986Z,8.82
2023-04-19T17:57:14.390Z,7.95
2023-04-19T17:58:47.195Z,7.65
2023-04-19T18:00:20.507Z,6.72
2023-04-19T18:01:56.693Z,7.90
2023-04-19T18:03:29.936Z,8.98
2023-04-19T18:05:03.066Z,8.23
2023-04-19T18:06:37.541Z,9.25
2023-04-19T18:08:10.938Z,9.57
2023-04-19T18:11:22.891Z,7.13
2023-04-19T18:12:55.822Z,6.47
2023-04-19T18:14:28.697Z,6.15
2023-04-19T18:16:07.303Z,8.52
2023-04-19T18:17:41.102Z,9.90
2023-04-19T18:19:14.128Z,9.35
2023-04-19T18:20:47.105Z,7.97
2023-04-19T18:22:21.381Z,8.70
2023-04-19T18:23:58.279Z,8.25
2023-04-19T18:25:39.274Z,8.50
2023-04-19T18:27:12.634Z,9.20
2023-04-19T18:30:26.005Z,8.75
2023-04-19T18:32:01.402Z,8.98
2023-04-19T18:33:39.665Z,8.45
2023-04-19T18:35:12.605Z,7.80
2023-04-19T18:36:55.939Z,8.88
2023-04-19T18:38:33.120Z,8.55
2023-04-19T18:40:08.496Z,9.75
2023-04-19T18:41:42.088Z,7.88
2023-04-19T18:43:15.621Z,14.98
2023-04-19T18:44:54.380Z,8.75
2023-04-19T18:46:27.746Z,7.88
2023-04-19T18:48:07.365Z,7.35
2023-04-19T18:49:40.440Z,8.50
2023-04-19T18:51:13.851Z,6.35
2023-04-19T18:54:21.009Z,7.68
2023-04-19T18:55:57.407Z,9.98
2023-04-19T18:57:34.175Z,9.80
2023-04-19T18:59:08.039Z,7.97
2023-04-19T19:00:41.089Z,8.77
2023-04-19T19:02:14.043Z,10.20
2023-04-19T19:04:12.739Z,11.93
2023-04-19T19:05:40.320Z,9.55
2023-04-19T19:07:27.752Z,7.45
2023-04-19T19:09:06.880Z,10.18
2023-04-19T19:12:17.324Z,9.57
2023-04-19T19:13:50.390Z,10.23
2023-04-19T19:15:23.513Z,9.00
2023-04-19T19:16:57.322Z,7.78
2023-04-19T19:18:30.486Z,8.65
2023-04-19T19:20:04.733Z,7.72
2023-04-19T19:21:37.713Z,8.98
2023-04-19T19:23:10.682Z,8.88
2023-04-19T19:24:43.677Z,9.95
2023-04-19T19:26:17.991Z,7.78
2023-04-19T19:28:06.177Z,9.07
2023-04-19T19:29:42.550Z,9.05
2023-04-19T19:31:15.506Z,10.18
2023-04-19T19:32:48.663Z,10.23
2023-04-19T19:34:28.889Z,8.32
2023-04-19T19:36:03.298Z,7.13
2023-04-19T19:37:36.986Z,10.50
2023-04-19T19:39:10.801Z,8.95
2023-04-19T19:41:22.160Z,9.23
2023-04-19T19:42:39.285Z,7.70
2023-04-19T19:44:12.313Z,8.18
2023-04-19T19:45:45.932Z,7.43
2023-04-19T19:47:19.010Z,8.93
2023-04-19T19:48:53.795Z,10.82
2023-04-19T19:51:02.252Z,7.50
2023-04-19T19:52:21.559Z,16.13
2023-04-19T19:53:54.601Z,7.88
2023-04-19T19:55:28.566Z,8.70
2023-04-19T19:58:49.483Z,8.35
2023-04-19T20:00:42.846Z,9.57
2023-04-19T20:02:18.274Z,9.93
2023-04-19T20:03:51.892Z,8.80
2023-04-19T20:05:25.466Z,7.80
2023-04-19T20:08:51.390Z,11.13
2023-04-19T20:10:23.614Z,10.18
2023-04-19T20:11:56.713Z,9.95
2023-04-19T20:13:29.857Z,7.93
2023-04-19T20:15:04.355Z,7.70
2023-04-19T20:16:37.454Z,9.63
2023-04-19T20:18:10.590Z,10.50
2023-04-19T20:19:45.023Z,7.95
2023-04-19T20:21:19.597Z,8.82
2023-04-19T20:22:52.742Z,8.25
2023-04-19T20:24:25.787Z,8.45
2023-04-19T20:25:59.815Z,10.38
2023-04-19T20:27:33.678Z,8.00
2023-04-19T20:29:07.193Z,8.50
2023-04-19T20:30:41.477Z,8.73
2023-04-19T20:32:14.486Z,9.93
2023-04-19T20:33:47.634Z,8.10
2023-04-19T20:35:21.100Z,10.07
2023-04-19T20:38:27.582Z,9.32
2023-04-19T20:40:00.577Z,9.23
2023-04-19T20:41:33.594Z,9.35
2023-04-19T20:43:08.206Z,9.43
2023-04-19T20:44:41.421Z,8.63
2023-04-19T20:46:16.776Z,8.75
2023-04-19T20:47:49.899Z,10.93
2023-04-19T20:49:23.006Z,8.15
2023-04-19T20:50:56.113Z,9.23
2023-04-19T20:52:29.115Z,9.23
2023-04-19T20:54:02.052Z,7.70
2023-04-19T20:55:35.046Z,7.88
2023-04-19T20:57:08.072Z,8.05
2023-04-19T20:58:40.978Z,7.55
2023-04-19T21:00:16.732Z,8.52
2023-04-19T21:01:51.254Z,8.75
2023-04-19T21:03:24.406Z,9.77
2023-04-19T21:04:57.502Z,8.95
2023-04-19T21:06:31.341Z,8.73
2023-04-19T21:08:04.440Z,8.75
2023-04-19T21:09:37.605Z,10.15
2023-04-19T21:11:10.630Z,9.50
2023-04-19T21:12:43.630Z,10.18
2023-04-19T21:14:16.610Z,9.73
2023-04-19T21:15:49.539Z,11.00
2023-04-19T21:17:24.034Z,12.32
2023-04-19T21:18:57.128Z,8.23
2023-04-19T21:20:30.228Z,9.70
2023-04-19T21:22:03.220Z,11.38
2023-04-19T21:23:36.355Z,9.07
2023-04-19T21:25:10.612Z,9.60
2023-04-19T21:26:43.593Z,8.93
2023-04-19T21:28:16.575Z,9.93
2023-04-19T21:29:49.581Z,10.48
2023-04-19T21:31:22.590Z,9.45
2023-04-19T21:32:57.036Z,12.52
2023-04-19T21:34:29.171Z,9.48
2023-04-19T21:36:02.147Z,10.20
2023-04-19T21:37:35.117Z,13.70
2023-04-19T21:39:08.806Z,10.77
2023-04-19T21:40:41.684Z,10.00